Time;durP1;ratioP1;P1;durP2;ratioP2;P2;SDS_P1;SDS_P2;PMS_P1;PMS_P2;Temp;Humidity;BMP_temperature;BMP_pressure;BME280_temperature;BME280_humidity;BME280_pressure;Samples;Min_cycle;Max_cycle;Signal;HPM_P1;HPM_P2
2022/05/05 00:02:26;;;;;;;13.20;11.77;;;;;;;11.62;97.30;97857.09;5005880;28;20050;-73
2022/05/05 00:04:54;;;;;;;12.45;10.60;;;;;;;11.52;97.60;97854.06;5004368;28;20053;-73
2022/05/05 00:07:21;;;;;;;17.98;16.08;;;;;;;11.33;97.66;97853.94;4991059;28;20065;-73
2022/05/05 00:09:48;;;;;;;12.60;11.00;;;;;;;11.39;97.66;97851.09;5003901;28;20509;-73
2022/05/05 00:15:02;;;;;;;13.55;12.13;;;;;;;11.51;98.08;97853.19;5003917;28;20128;-73
2022/05/05 00:17:32;;;;;;;14.95;12.90;;;;;;;11.39;98.37;97851.09;5002806;28;20157;-73
2022/05/05 00:20:00;;;;;;;13.05;11.73;;;;;;;11.52;98.50;97841.91;5018937;28;20138;-73
2022/05/05 00:22:27;;;;;;;16.92;14.60;;;;;;;11.32;98.55;97849.69;5003729;28;20133;-73
2022/05/05 00:24:54;;;;;;;32.90;24.35;;;;;;;11.08;98.38;97848.91;5005590;28;20136;-73
2022/05/05 00:27:22;;;;;;;16.17;14.43;;;;;;;11.32;97.96;97864.44;5003370;28;20168;-73
2022/05/05 00:29:51;;;;;;;14.00;12.15;;;;;;;11.42;97.90;97857.94;5004896;28;20145;-73
2022/05/05 00:32:19;;;;;;;15.85;13.02;;;;;;;11.43;98.04;97855.28;4991145;28;20500;-72
2022/05/05 00:34:46;;;;;;;23.45;17.35;;;;;;;11.43;98.09;97857.03;5003304;28;20124;-73
2022/05/05 00:37:13;;;;;;;15.25;13.65;;;;;;;11.54;98.07;97851.38;5000199;28;20096;-72
2022/05/05 00:39:40;;;;;;;13.40;11.57;;;;;;;11.48;98.35;97845.53;5003024;28;20077;-73
2022/05/05 00:42:11;;;;;;;15.55;12.85;;;;;;;11.51;98.54;97853.19;5004440;28;20457;-73
2022/05/05 00:44:39;;;;;;;20.20;15.68;;;;;;;11.48;98.67;97847.28;5000776;28;20129;-73
2022/05/05 00:47:06;;;;;;;21.02;17.17;;;;;;;11.42;98.67;97847.53;5001289;28;20081;-73
2022/05/05 00:49:34;;;;;;;16.00;14.30;;;;;;;11.42;98.71;97850.13;5000294;28;20460;-73
2022/05/05 00:52:01;;;;;;;16.58;13.88;;;;;;;11.51;98.84;97845.38;5002879;28;20049;-73
2022/05/05 00:54:31;;;;;;;17.30;14.13;;;;;;;11.59;99.28;97846.84;5005001;28;20077;-73
2022/05/05 00:56:59;;;;;;;17.77;13.85;;;;;;;11.43;99.79;97850.09;5004497;28;20043;-73
2022/05/05 00:59:26;;;;;;;16.63;14.93;;;;;;;11.34;99.94;97847.03;5002595;28;20050;-73
2022/05/05 01:01:54;;;;;;;17.40;13.82;;;;;;;11.29;99.90;97848.06;5000397;28;20049;-73
2022/05/05 01:04:22;;;;;;;23.38;18.33;;;;;;;11.25;99.95;97846.47;4987451;28;20617;-73
2022/05/05 01:06:49;;;;;;;17.33;14.88;;;;;;;11.27;99.99;97841.22;4998600;28;20149;-73
2022/05/05 01:09:17;;;;;;;18.67;16.25;;;;;;;11.28;100.00;97846.34;5003012;28;20053;-73
2022/05/05 01:11:45;;;;;;;25.13;18.52;;;;;;;11.24;100.00;97838.75;5001511;28;20125;-73
2022/05/05 01:14:17;;;;;;;;;;;;;;;11.37;100.00;97839.09;5000789;28;20111;-73
2022/05/05 01:16:44;;;;;;;13.30;11.88;;;;;;;11.40;100.00;97831.16;5002196;28;19921;-73
2022/05/05 01:19:12;;;;;;;14.20;12.43;;;;;;;11.58;100.00;97838.19;5000617;28;20129;-73
2022/05/05 01:21:39;;;;;;;13.15;11.77;;;;;;;11.68;100.00;97836.06;5004835;28;20503;-72
2022/05/05 01:24:07;;;;;;;14.05;11.82;;;;;;;11.75;100.00;97837.47;5004366;28;20534;-72
2022/05/05 01:29:20;;;;;;;16.10;12.43;;;;;;;11.69;100.00;97833.38;5002552;28;20623;-72
2022/05/05 01:31:48;;;;;;;16.42;11.45;;;;;;;11.61;100.00;97837.19;4986291;28;20145;-72
2022/05/05 01:34:16;;;;;;;23.33;18.13;;;;;;;11.25;100.00;97843.88;4987268;28;20057;-75
2022/05/05 01:36:44;;;;;;;31.33;23.77;;;;;;;10.81;100.00;97845.66;4999978;28;20082;-72
2022/05/05 01:39:11;;;;;;;30.90;23.92;;;;;;;10.72;100.00;97854.69;4969530;28;20141;-72
2022/05/05 01:41:38;;;;;;;34.33;25.83;;;;;;;10.71;100.00;97865.94;4990699;28;20465;-75
2022/05/05 01:44:06;;;;;;;24.73;19.42;;;;;;;10.84;99.23;97863.72;5000347;28;20064;-72
2022/05/05 01:46:33;;;;;;;22.55;18.23;;;;;;;10.90;99.01;97871.25;5001225;28;20054;-74
2022/05/05 01:49:01;;;;;;;20.73;16.88;;;;;;;11.06;98.93;97863.72;5000811;28;20089;-74
2022/05/05 01:51:28;;;;;;;15.32;13.73;;;;;;;11.18;98.99;97865.84;5000492;28;20137;-74
2022/05/05 01:53:55;;;;;;;15.88;12.43;;;;;;;11.49;99.10;97870.63;4998042;28;20453;-74
2022/05/05 01:56:23;;;;;;;17.05;12.32;;;;;;;11.47;99.54;97862.03;5000379;28;20642;-72
2022/05/05 01:58:50;;;;;;;15.30;13.70;;;;;;;11.47;100.00;97869.84;4999354;28;20137;-74
2022/05/05 02:01:17;;;;;;;22.27;18.45;;;;;;;11.07;100.00;97855.88;4999213;28;20056;-74
2022/05/05 02:03:45;;;;;;;26.45;20.30;;;;;;;10.75;100.00;97864.09;4998664;28;20129;-74
2022/05/05 02:06:15;;;;;;;22.15;18.67;;;;;;;10.75;99.55;97869.28;5004134;28;20105;-74
2022/05/05 02:08:43;;;;;;;24.23;18.60;;;;;;;10.70;99.18;97872.06;5000031;28;20077;-74
2022/05/05 02:11:10;;;;;;;25.63;22.20;;;;;;;10.65;98.73;97872.22;4998026;28;20539;-74
2022/05/05 02:13:37;;;;;;;30.50;23.88;;;;;;;10.64;98.36;97875.72;4997785;28;20046;-74
2022/05/05 02:16:05;;;;;;;27.30;22.08;;;;;;;10.74;98.06;97876.22;5001387;28;20042;-74
2022/05/05 02:18:33;;;;;;;32.88;25.13;;;;;;;10.74;97.89;97884.03;4999091;28;20054;-74
2022/05/05 02:21:00;;;;;;;28.70;20.60;;;;;;;10.77;97.76;97885.66;5003686;28;20075;-74
2022/05/05 02:23:27;;;;;;;21.77;18.20;;;;;;;10.81;97.80;97885.47;5000833;28;20129;-74
2022/05/05 02:25:54;;;;;;;23.83;21.23;;;;;;;10.73;97.86;97882.31;5002337;28;20046;-74
2022/05/05 02:28:22;;;;;;;18.42;16.38;;;;;;;10.71;97.85;97884.13;5000328;28;20064;-74
2022/05/05 02:30:49;;;;;;;25.58;20.45;;;;;;;10.63;97.88;97881.81;4999650;28;20133;-74
2022/05/05 02:33:17;;;;;;;24.33;20.88;;;;;;;10.57;97.80;97886.41;5002749;28;20049;-74
2022/05/05 02:35:44;;;;;;;21.58;17.08;;;;;;;10.70;97.67;97884.16;4997733;28;20301;-74
2022/05/05 02:40:58;;;;;;;24.17;21.58;;;;;;;10.62;97.66;97890.50;5001072;28;20153;-74
2022/05/05 02:43:25;;;;;;;18.35;16.45;;;;;;;10.72;97.52;97896.22;5003580;28;20436;-74
2022/05/05 02:45:53;;;;;;;16.98;14.00;;;;;;;11.00;97.47;97885.59;4996970;28;20138;-74
2022/05/05 02:48:20;;;;;;;20.63;17.20;;;;;;;11.00;97.67;97892.53;4999633;28;20148;-74
2022/05/05 02:50:48;;;;;;;17.65;15.05;;;;;;;11.07;97.80;97894.81;4999940;28;20050;-74
2022/05/05 02:56:01;;;;;;;19.83;17.38;;;;;;;10.85;98.41;97887.03;5008772;28;20124;-74
2022/05/05 02:58:29;;;;;;;17.08;14.55;;;;;;;11.13;98.29;97891.16;4999295;28;20046;-75
2022/05/05 03:00:56;;;;;;;14.77;13.23;;;;;;;11.10;98.55;97886.91;4998721;28;20136;-74
2022/05/05 03:03:24;;;;;;;23.45;18.38;;;;;;;10.75;98.77;97884.88;5002035;28;20050;-72
2022/05/05 03:05:51;;;;;;;20.17;17.95;;;;;;;10.61;98.58;97895.78;5001462;28;20054;-74
2022/05/05 03:08:19;;;;;;;19.80;17.08;;;;;;;10.75;98.39;97895.25;5002415;28;20132;-74
2022/05/05 03:10:47;;;;;;;22.55;18.63;;;;;;;10.71;98.42;97891.91;5003490;28;20131;-74
2022/05/05 03:13:14;;;;;;;21.17;18.42;;;;;;;10.69;98.46;97888.53;5001631;28;20060;-72
2022/05/05 03:15:41;;;;;;;17.83;15.65;;;;;;;10.82;98.46;97887.16;5002880;28;20046;-72
2022/05/05 03:18:09;;;;;;;17.25;14.93;;;;;;;10.82;99.54;97889.75;5004891;28;20046;-74
2022/05/05 03:20:37;;;;;;;16.48;13.30;;;;;;;11.09;100.00;97884.38;4997344;28;20149;-74
2022/05/05 03:23:04;;;;;;;20.98;15.02;;;;;;;11.25;100.00;97880.25;5020520;28;20053;-74
2022/05/05 03:25:31;;;;;;;19.42;13.98;;;;;;;11.28;100.00;97871.50;5004969;28;20141;-74
2022/05/05 03:27:59;;;;;;;16.80;13.57;;;;;;;11.21;100.00;97870.91;4984595;28;20093;-73
2022/05/05 03:30:26;;;;;;;13.45;12.05;;;;;;;11.29;100.00;97874.03;4990773;28;20587;-73
2022/05/05 03:32:55;;;;;;;15.82;11.25;;;;;;;11.21;100.00;97867.47;5004140;28;20132;-73
2022/05/05 03:35:22;;;;;;;15.07;11.55;;;;;;;10.92;100.00;97858.22;5001226;28;20088;-73
2022/05/05 03:37:50;;;;;;;17.33;10.85;;;;;;;10.93;100.00;97855.56;5003409;28;20760;-74
2022/05/05 03:40:17;;;;;;;14.25;10.30;;;;;;;11.13;100.00;97848.72;4985479;28;20133;-73
2022/05/05 03:42:45;;;;;;;14.57;10.25;;;;;;;11.04;100.00;97842.16;5001783;28;20515;-73
2022/05/05 03:45:12;;;;;;;15.07;11.00;;;;;;;10.99;100.00;97841.50;5004335;28;20050;-73
2022/05/05 03:47:40;;;;;;;12.55;9.82;;;;;;;10.96;100.00;97839.88;5001626;28;20556;-73
2022/05/05 03:50:08;;;;;;;12.00;10.18;;;;;;;10.95;100.00;97851.16;5003662;28;20224;-73
2022/05/05 03:52:35;;;;;;;17.77;13.05;;;;;;;10.95;100.00;97852.91;4985783;28;20190;-73
2022/05/05 03:55:03;;;;;;;13.85;10.27;;;;;;;11.01;100.00;97861.28;5002431;28;20771;-73
2022/05/05 03:57:30;;;;;;;14.25;9.85;;;;;;;11.16;100.00;97862.44;5014965;28;20389;-73
2022/05/05 03:59:57;;;;;;;13.88;9.90;;;;;;;11.28;100.00;97874.94;4998831;28;20080;-73
2022/05/05 04:02:25;;;;;;;12.52;9.73;;;;;;;11.24;100.00;97873.38;5003163;28;20128;-74
2022/05/05 04:04:52;;;;;;;15.32;11.98;;;;;;;11.11;100.00;97872.19;5020247;28;20046;-73
2022/05/05 04:07:19;;;;;;;13.80;10.02;;;;;;;11.13;100.00;97877.31;5003338;28;20129;-74
2022/05/05 04:09:47;;;;;;;15.20;10.07;;;;;;;10.93;100.00;97881.56;5002286;28;20057;-73
2022/05/05 04:12:15;;;;;;;16.90;12.18;;;;;;;10.83;100.00;97881.06;5003920;28;20124;-74
2022/05/05 04:14:43;;;;;;;13.25;10.93;;;;;;;10.80;100.00;97883.75;5002801;28;20129;-73
2022/05/05 04:17:12;;;;;;;21.42;12.15;;;;;;;10.66;100.00;97886.06;5003806;28;20052;-75
2022/05/05 04:19:40;;;;;;;15.07;10.95;;;;;;;10.66;100.00;97889.50;5001516;28;20104;-73
2022/05/05 04:22:07;;;;;;;15.20;10.27;;;;;;;10.65;100.00;97895.59;5000255;28;20132;-74
2022/05/05 04:24:34;;;;;;;14.63;11.20;;;;;;;10.84;100.00;97894.91;5001620;28;20137;-74
2022/05/05 04:27:02;;;;;;;13.20;10.48;;;;;;;10.79;100.00;97907.22;5003454;28;20129;-73
2022/05/05 04:29:29;;;;;;;16.27;11.38;;;;;;;10.83;100.00;97912.22;5006263;28;20153;-74
2022/05/05 04:31:57;;;;;;;18.40;12.13;;;;;;;10.65;100.00;97924.16;5006783;28;20138;-73
2022/05/05 04:34:24;;;;;;;15.93;11.75;;;;;;;10.62;100.00;97924.25;5004841;28;20512;-74
2022/05/05 04:36:53;;;;;;;18.48;13.02;;;;;;;10.66;100.00;97922.41;5001984;28;20092;-73
2022/05/05 04:39:20;;;;;;;14.32;10.57;;;;;;;10.78;100.00;97936.66;5006688;28;20057;-74
2022/05/05 04:41:48;;;;;;;18.15;11.57;;;;;;;10.61;100.00;97929.53;5018484;28;20073;-73
2022/05/05 04:44:15;;;;;;;14.30;11.32;;;;;;;10.45;100.00;97932.66;4985905;28;20081;-74
2022/05/05 04:46:42;;;;;;;18.35;11.02;;;;;;;10.38;100.00;97936.38;4999264;28;20049;-74
2022/05/05 04:49:10;;;;;;;17.38;11.00;;;;;;;10.40;100.00;97928.53;5002208;28;20061;-74
2022/05/05 04:51:38;;;;;;;16.88;11.55;;;;;;;10.21;100.00;97930.91;5000227;28;20527;-74
2022/05/05 04:54:05;;;;;;;15.00;11.05;;;;;;;10.25;100.00;97929.91;5002062;28;21466;-74
2022/05/05 04:56:33;;;;;;;14.40;9.40;;;;;;;10.51;100.00;97925.56;5001742;28;20128;-73
2022/05/05 04:59:00;;;;;;;17.20;10.57;;;;;;;10.56;100.00;97928.81;5003455;28;20065;-74
2022/05/05 05:01:27;;;;;;;15.27;10.13;;;;;;;10.71;100.00;97941.25;5005683;28;20045;-73
2022/05/05 05:03:55;;;;;;;14.70;9.90;;;;;;;10.66;100.00;97945.75;5004882;28;20591;-74
2022/05/05 05:06:22;;;;;;;16.08;9.48;;;;;;;10.76;100.00;97941.06;5006248;28;20045;-73
2022/05/05 05:08:50;;;;;;;19.52;11.02;;;;;;;10.63;100.00;97936.34;5002274;28;20480;-74
2022/05/05 05:11:17;;;;;;;13.52;9.13;;;;;;;10.57;100.00;97933.13;5001184;28;20125;-73
2022/05/05 05:13:44;;;;;;;15.32;10.00;;;;;;;10.33;100.00;97927.06;5002986;28;20227;-74
2022/05/05 05:16:12;;;;;;;13.07;8.95;;;;;;;10.48;100.00;97942.09;5003810;28;20121;-73
2022/05/05 05:19:00;;;;;;;15.63;10.35;;;;;;;10.35;100.00;97946.88;5000369;28;20057;-74
2022/05/05 05:21:27;;;;;;;19.58;11.50;;;;;;;10.23;100.00;97942.94;4990699;28;20089;-74
2022/05/05 05:23:54;;;;;;;15.27;10.48;;;;;;;10.20;100.00;97953.41;4997124;28;20499;-74
2022/05/05 05:26:22;;;;;;;18.58;11.10;;;;;;;10.20;100.00;97955.19;4987024;28;20132;-74
2022/05/05 05:28:49;;;;;;;25.80;15.30;;;;;;;10.08;100.00;97960.78;5003681;28;20455;-74
2022/05/05 05:31:17;;;;;;;27.13;17.95;;;;;;;10.03;100.00;97963.53;4986977;28;20157;-74
2022/05/05 05:33:44;;;;;;;27.48;19.50;;;;;;;9.99;100.00;97968.00;5003787;28;20092;-73
2022/05/05 05:36:12;;;;;;;41.67;25.60;;;;;;;9.89;100.00;97973.53;4999979;28;20076;-74
2022/05/05 05:38:39;;;;;;;35.95;23.13;;;;;;;9.94;100.00;97979.41;4982132;28;20092;-73
2022/05/05 05:41:08;;;;;;;31.27;20.17;;;;;;;9.91;100.00;97980.34;5001412;28;20059;-74
2022/05/05 05:43:36;;;;;;;20.17;15.43;;;;;;;10.02;100.00;97983.44;5000692;28;20780;-73
2022/05/05 05:46:03;;;;;;;21.90;16.90;;;;;;;10.02;100.00;97974.81;4999265;28;20050;-74
2022/05/05 05:48:31;;;;;;;22.38;15.95;;;;;;;9.96;100.00;97975.84;4997940;28;20050;-73
2022/05/05 05:50:58;;;;;;;18.73;14.05;;;;;;;9.97;100.00;97979.31;4998331;28;20132;-73
2022/05/05 05:53:26;;;;;;;19.50;13.63;;;;;;;10.09;100.00;97980.63;4998635;28;20113;-73
2022/05/05 05:55:53;;;;;;;16.42;11.93;;;;;;;10.15;100.00;97980.41;5000063;28;20409;-73
2022/05/05 05:58:20;;;;;;;18.95;13.02;;;;;;;10.21;100.00;97983.63;5000161;28;20062;-73
2022/05/05 06:00:48;;;;;;;13.88;11.05;;;;;;;10.38;100.00;97971.88;4990542;28;20459;-73
2022/05/05 06:06:02;;;;;;;22.40;15.63;;;;;;;10.46;100.00;97975.88;4999605;28;20081;-74
2022/05/05 06:08:30;;;;;;;29.27;20.40;;;;;;;10.38;100.00;97979.66;4999517;28;20145;-74
2022/05/05 06:10:58;;;;;;;37.47;25.35;;;;;;;10.37;100.00;97977.94;5000465;28;20062;-74
2022/05/05 06:13:26;;;;;;;47.25;33.40;;;;;;;10.32;100.00;97983.31;4982974;28;20112;-74
2022/05/05 06:15:53;;;;;;;53.10;37.97;;;;;;;10.30;100.00;97987.69;4982002;28;20052;-72
2022/05/05 06:18:21;;;;;;;61.35;42.33;;;;;;;10.31;100.00;97989.41;4998534;28;20065;-72
2022/05/05 06:20:49;;;;;;;22.15;14.27;;;;;;;10.26;100.00;97988.66;5015081;28;20512;-74
2022/05/05 06:23:17;;;;;;;33.50;23.08;;;;;;;10.36;100.00;97989.25;4999898;28;20196;-74
2022/05/05 06:25:44;;;;;;;29.55;22.23;;;;;;;10.55;100.00;97986.84;5003240;28;20058;-74
2022/05/05 06:28:13;;;;;;;30.60;21.50;;;;;;;10.61;100.00;97989.22;4982632;28;20100;-74
2022/05/05 06:30:40;;;;;;;29.88;19.75;;;;;;;10.50;100.00;97991.34;5001270;28;20137;-74
2022/05/05 06:33:07;;;;;;;43.83;30.15;;;;;;;10.40;100.00;97996.88;4985556;28;20420;-74
2022/05/05 06:35:36;;;;;;;20.40;14.13;;;;;;;10.45;100.00;97999.31;4999735;28;20141;-74
2022/05/05 06:38:04;;;;;;;18.40;12.15;;;;;;;10.39;100.00;97999.50;5003078;28;20053;-74
2022/05/05 06:40:31;;;;;;;17.55;11.57;;;;;;;10.54;100.00;98000.72;5003371;28;20480;-73
2022/05/05 06:42:58;;;;;;;20.42;11.40;;;;;;;10.67;100.00;98005.44;4999182;28;20054;-72
2022/05/05 06:45:26;;;;;;;14.30;10.55;;;;;;;10.62;100.00;98009.91;5016144;28;20082;-73
2022/05/05 06:47:54;;;;;;;18.27;12.13;;;;;;;10.67;100.00;98005.44;5000399;28;20130;-73
2022/05/05 06:50:21;;;;;;;20.02;12.10;;;;;;;10.53;100.00;98018.03;4999642;28;20060;-73
2022/05/05 06:52:49;;;;;;;19.00;12.15;;;;;;;10.46;100.00;98013.97;5002049;28;20081;-73
2022/05/05 06:55:18;;;;;;;19.80;12.98;;;;;;;10.46;100.00;98013.97;4999221;28;20114;-73
2022/05/05 06:57:47;;;;;;;20.25;13.75;;;;;;;10.56;100.00;98017.94;5002265;28;20038;-73
2022/05/05 07:00:14;;;;;;;22.75;13.68;;;;;;;10.58;100.00;98015.28;4997323;28;20140;-73
2022/05/05 07:02:41;;;;;;;21.65;14.13;;;;;;;10.57;100.00;98018.78;4995979;28;20604;-73
2022/05/05 07:05:24;;;;;;;19.55;12.77;;;;;;;10.55;100.00;98018.81;4984769;28;20629;-73
2022/05/05 07:07:52;;;;;;;22.17;12.90;;;;;;;10.57;100.00;98008.41;4998095;28;20042;-73
2022/05/05 07:13:07;;;;;;;15.80;11.40;;;;;;;10.99;100.00;98013.78;4999647;28;20081;-74
2022/05/05 07:15:34;;;;;;;15.95;10.82;;;;;;;11.28;100.00;98015.25;5000180;28;20058;-74
2022/05/05 07:18:02;;;;;;;13.63;10.73;;;;;;;11.42;100.00;98014.72;4998469;28;20584;-74
2022/05/05 07:20:29;;;;;;;16.75;11.00;;;;;;;11.34;100.00;98010.75;4997871;28;20110;-74
2022/05/05 07:22:56;;;;;;;17.13;10.90;;;;;;;11.40;100.00;98013.94;4984664;28;20136;-74
2022/05/05 07:25:25;;;;;;;18.98;10.93;;;;;;;11.62;100.00;98019.16;4999490;28;20600;-74
2022/05/05 07:27:53;;;;;;;15.05;10.63;;;;;;;11.52;100.00;98023.03;4994673;28;20046;-74
2022/05/05 07:30:20;;;;;;;15.38;10.35;;;;;;;11.48;100.00;98024.06;5001223;28;20153;-73
2022/05/05 07:32:48;;;;;;;18.48;10.95;;;;;;;11.52;100.00;98023.88;5001279;28;20576;-74
2022/05/05 07:35:16;;;;;;;16.25;10.73;;;;;;;11.52;100.00;98033.44;5012856;28;20104;-74
2022/05/05 07:37:44;;;;;;;22.02;12.13;;;;;;;11.75;100.00;98034.28;4981720;28;20126;-74
2022/05/05 07:40:12;;;;;;;16.65;10.45;;;;;;;11.86;100.00;98030.34;5001787;28;20053;-74
2022/05/05 07:42:41;;;;;;;16.88;10.75;;;;;;;11.77;100.00;98029.84;4984143;28;20471;-74
2022/05/05 07:45:09;;;;;;;12.35;9.23;;;;;;;11.97;100.00;98022.09;4962634;28;20141;-74
2022/05/05 07:47:37;;;;;;;16.75;10.43;;;;;;;12.30;100.00;98029.44;4977999;28;20054;-74
2022/05/05 07:50:05;;;;;;;11.27;8.25;;;;;;;12.49;100.00;98022.50;4992373;28;20142;-74
2022/05/05 07:52:32;;;;;;;14.65;9.10;;;;;;;12.34;100.00;98018.81;4970699;28;20039;-73
2022/05/05 07:55:00;;;;;;;19.90;10.13;;;;;;;12.33;100.00;98021.47;4978279;28;20664;-74
2022/05/05 07:57:27;;;;;;;15.27;10.18;;;;;;;12.39;100.00;98018.63;4978653;28;20154;-73
2022/05/05 07:59:54;;;;;;;16.95;10.35;;;;;;;12.58;100.00;98017.84;4980017;28;20611;-73
2022/05/05 08:02:22;;;;;;;16.95;11.07;;;;;;;12.37;100.00;98024.81;4979050;28;20484;-73
2022/05/05 08:04:50;;;;;;;13.57;9.45;;;;;;;12.30;100.00;98026.81;4982064;28;20540;-73
2022/05/05 08:07:18;;;;;;;14.35;9.57;;;;;;;12.20;100.00;98022.91;4986874;28;20455;-73
2022/05/05 08:09:45;;;;;;;11.25;8.75;;;;;;;12.25;100.00;98027.03;4979001;28;20088;-73
2022/05/05 08:12:29;;;;;;;16.20;11.05;;;;;;;12.05;100.00;98024.41;4985663;28;20750;-73
2022/05/05 08:14:57;;;;;;;15.30;9.98;;;;;;;11.97;100.00;98035.09;4982502;28;20142;-73
2022/05/05 08:17:24;;;;;;;14.35;9.80;;;;;;;12.37;100.00;98033.47;4985989;28;20042;-73
2022/05/05 08:19:52;;;;;;;18.42;11.05;;;;;;;12.10;100.00;98030.25;4982939;28;20058;-73
2022/05/05 08:22:20;;;;;;;14.73;10.20;;;;;;;12.38;100.00;98040.34;4982591;28;20146;-74
2022/05/05 08:30:20;;;;;;;15.48;10.45;;;;;;;12.85;100.00;98045.25;4983131;28;20077;-73
2022/05/05 08:32:47;;;;;;;17.13;11.57;;;;;;;13.07;100.00;98042.56;4983017;28;20057;-73
2022/05/05 08:35:15;;;;;;;16.00;10.63;;;;;;;13.20;100.00;98045.44;4983744;28;20093;-73
2022/05/05 08:37:42;;;;;;;20.25;12.40;;;;;;;13.02;100.00;98049.72;4979325;28;20060;-73
2022/05/05 08:40:14;;;;;;;14.20;9.75;;;;;;;13.10;100.00;98055.44;4982067;28;20141;-73
2022/05/05 08:42:42;;;;;;;16.20;11.07;;;;;;;13.04;100.00;98057.47;4981849;28;20050;-73
2022/05/05 08:45:10;;;;;;;16.92;10.38;;;;;;;13.37;100.00;98055.13;4981956;28;20042;-73
2022/05/05 08:47:38;;;;;;;18.25;11.88;;;;;;;13.25;100.00;98060.84;4977346;28;20137;-73
2022/05/05 08:50:11;;;;;;;20.83;12.60;;;;;;;13.13;100.00;98064.88;4982039;28;20058;-73
2022/05/05 08:52:49;;;;;;;17.77;12.95;;;;;;;12.96;100.00;98066.47;4979602;28;20073;-73
2022/05/05 08:55:19;;;;;;;15.95;11.27;;;;;;;12.99;100.00;98062.88;4979696;28;20493;-73
2022/05/05 08:57:47;;;;;;;17.65;10.43;;;;;;;13.13;100.00;98067.47;4980464;28;20043;-73
2022/05/05 09:00:15;;;;;;;15.50;10.55;;;;;;;13.21;100.00;98060.16;4980983;28;20062;-73
2022/05/05 09:02:44;;;;;;;17.30;10.68;;;;;;;13.18;100.00;98071.59;4977489;28;20132;-74
2022/05/05 09:05:12;;;;;;;20.00;10.77;;;;;;;13.45;100.00;98070.41;4983566;28;20047;-73
2022/05/05 09:07:50;;;;;;;15.40;10.00;;;;;;;13.36;100.00;98069.06;4981695;28;20050;-73
2022/05/05 09:10:20;;;;;;;16.00;11.13;;;;;;;12.88;100.00;98071.16;4979092;28;20727;-73
2022/05/05 09:13:01;;;;;;;14.15;9.50;;;;;;;12.94;100.00;98080.50;4984975;28;20047;-73
2022/05/05 09:15:32;;;;;;;14.10;10.07;;;;;;;12.61;100.00;98074.97;4984968;28;20050;-73
2022/05/05 09:18:16;;;;;;;17.27;10.25;;;;;;;12.76;100.00;98071.72;4982163;28;20061;-73
2022/05/05 09:20:45;;;;;;;16.80;9.57;;;;;;;13.01;100.00;98068.88;4982143;28;20054;-72
2022/05/05 09:26:28;;;;;;;13.88;9.85;;;;;;;12.88;100.00;98073.78;4955402;28;20128;-72
2022/05/05 09:28:56;;;;;;;16.33;10.20;;;;;;;13.04;100.00;98078.31;4978067;28;20133;-72
2022/05/05 09:31:24;;;;;;;18.40;11.05;;;;;;;13.12;100.00;98077.06;4983623;28;20090;-74
2022/05/05 09:33:51;;;;;;;15.30;10.70;;;;;;;13.22;100.00;98079.25;4981555;28;20073;-74
2022/05/05 09:36:28;;;;;;;20.52;12.38;;;;;;;12.98;100.00;98084.66;4981253;28;20080;-74
2022/05/05 09:38:57;;;;;;;16.40;10.55;;;;;;;13.10;100.00;98083.28;4981077;28;20565;-74
2022/05/05 09:41:32;;;;;;;18.15;12.85;;;;;;;13.01;100.00;98084.50;4987426;28;20094;-74
2022/05/05 09:44:20;;;;;;;28.38;13.60;;;;;;;13.08;100.00;98087.69;4965089;28;20425;-74
2022/05/05 09:46:48;;;;;;;17.77;10.70;;;;;;;13.12;100.00;98087.50;4983286;28;20050;-73
2022/05/05 09:49:20;;;;;;;18.70;12.60;;;;;;;13.05;100.00;98093.06;4977961;28;20061;-73
2022/05/05 09:57:42;;;;;;;18.05;11.43;;;;;;;13.03;100.00;98100.94;4975040;28;20800;-74
2022/05/05 10:05:53;;;;;;;21.75;13.35;;;;;;;13.06;100.00;98102.56;4981655;28;20501;-74
2022/05/05 10:08:30;;;;;;;19.23;11.65;;;;;;;13.32;100.00;98112.72;4977737;28;20595;-72
2022/05/05 10:10:57;;;;;;;18.33;12.25;;;;;;;12.95;100.00;98103.00;4983826;28;20549;-74
2022/05/05 10:13:26;;;;;;;18.10;11.75;;;;;;;13.41;100.00;98100.16;4977899;28;20650;-74
2022/05/05 10:15:54;;;;;;;15.75;10.95;;;;;;;13.35;100.00;98103.91;4970868;28;20172;-74
2022/05/05 10:18:28;;;;;;;15.52;11.25;;;;;;;14.04;100.00;98097.22;4979765;28;20057;-74
2022/05/05 10:20:58;;;;;;;23.10;13.07;;;;;;;13.71;100.00;98093.53;4983188;28;20110;-73
2022/05/05 10:23:50;;;;;;;15.75;10.15;;;;;;;14.19;100.00;98097.31;4976872;28;20138;-73
2022/05/05 10:26:22;;;;;;;18.85;11.80;;;;;;;13.93;100.00;98093.34;4976272;28;20046;-73
2022/05/05 10:28:50;;;;;;;16.15;10.50;;;;;;;13.99;100.00;98090.44;4984254;28;20804;-73
2022/05/05 10:31:37;;;;;;;14.15;10.10;;;;;;;14.16;100.00;98094.84;4980235;28;20059;-74
2022/05/05 10:34:07;;;;;;;15.40;9.63;;;;;;;14.33;100.00;98095.78;4982804;28;20051;-72
2022/05/05 10:36:36;;;;;;;18.05;10.20;;;;;;;14.27;100.00;98094.31;4966933;28;20050;-74
2022/05/05 10:39:21;;;;;;;15.20;9.73;;;;;;;13.96;100.00;98092.38;4983240;28;20066;-75
2022/05/05 10:41:51;;;;;;;13.50;9.10;;;;;;;14.13;100.00;98092.38;4982134;28;20046;-74
2022/05/05 10:44:24;;;;;;;15.45;10.30;;;;;;;14.24;100.00;98097.09;4977947;28;20082;-74
2022/05/05 10:47:02;;;;;;;15.43;9.90;;;;;;;13.86;100.00;98093.72;4963052;28;20162;-74
2022/05/05 10:49:39;;;;;;;17.70;10.05;;;;;;;13.64;100.00;98091.25;4985908;28;20050;-74
2022/05/05 10:52:09;;;;;;;21.42;10.13;;;;;;;13.71;100.00;98097.91;4980543;28;20054;-74
2022/05/05 10:54:42;;;;;;;15.75;10.35;;;;;;;13.35;100.00;98101.28;4981977;28;20053;-74
2022/05/05 10:57:29;;;;;;;14.77;9.80;;;;;;;13.80;100.00;98100.06;4981193;28;20065;-74
2022/05/05 11:00:13;;;;;;;14.50;9.70;;;;;;;14.03;100.00;98112.03;4980328;28;20141;-74
2022/05/05 11:03:02;;;;;;;13.38;9.95;;;;;;;14.00;100.00;98099.09;4979673;28;20516;-74
2022/05/05 11:05:35;;;;;;;13.95;9.65;;;;;;;13.87;100.00;98103.25;4980435;28;20555;-74
2022/05/05 11:08:14;;;;;;;15.18;8.93;;;;;;;14.02;100.00;98103.31;4974904;28;20426;-74
2022/05/05 11:10:41;;;;;;;13.63;9.80;;;;;;;14.00;100.00;98105.19;4979761;28;20051;-74
2022/05/05 11:13:27;;;;;;;13.25;8.77;;;;;;;14.26;100.00;98105.69;4979140;28;20046;-74
2022/05/05 11:21:37;;;;;;;15.35;9.00;;;;;;;13.92;100.00;98107.31;4975556;28;20129;-74
2022/05/05 11:24:05;;;;;;;14.93;9.70;;;;;;;13.67;100.00;98109.41;4978977;28;20067;-74
2022/05/05 11:26:33;;;;;;;14.75;9.20;;;;;;;13.51;100.00;98114.47;4978341;28;20069;-74
2022/05/05 11:29:00;;;;;;;17.60;10.13;;;;;;;13.51;100.00;98122.28;4979754;28;20116;-75
2022/05/05 11:31:30;;;;;;;16.95;10.95;;;;;;;13.35;100.00;98117.78;4973925;28;20630;-74
2022/05/05 11:34:03;;;;;;;17.27;10.30;;;;;;;13.31;100.00;98112.75;4976689;28;20050;-74
2022/05/05 11:36:33;;;;;;;16.52;9.55;;;;;;;13.17;100.00;98113.34;4975988;28;20650;-74
2022/05/05 11:39:02;;;;;;;18.50;8.93;;;;;;;13.55;100.00;98116.03;4958931;28;20050;-73
2022/05/05 11:41:30;;;;;;;14.82;9.50;;;;;;;13.73;100.00;98112.56;4975570;28;20489;-73
2022/05/05 11:44:17;;;;;;;20.42;10.23;;;;;;;13.57;100.00;98115.03;4964760;28;20103;-73
2022/05/05 11:46:46;;;;;;;16.02;8.77;;;;;;;13.63;100.00;98107.84;4979133;28;20471;-73
2022/05/05 11:49:14;;;;;;;18.60;10.27;;;;;;;13.68;100.00;98108.47;4984196;28;20058;-73
2022/05/05 11:51:42;;;;;;;13.32;8.77;;;;;;;13.89;100.00;98106.59;4982051;28;20069;-73
2022/05/05 11:54:11;;;;;;;17.63;10.50;;;;;;;13.96;100.00;98101.03;4970519;28;20085;-71
2022/05/05 11:56:47;;;;;;;17.33;9.57;;;;;;;13.86;100.00;98097.16;4979635;28;20153;-72
2022/05/05 12:02:10;;;;;;;14.77;8.02;;;;;;;13.81;100.00;98100.00;4982457;28;20129;-75
2022/05/05 12:04:45;;;;;;;17.55;8.77;;;;;;;14.00;100.00;98096.50;4984182;28;20701;-73
2022/05/05 12:07:19;;;;;;;14.77;8.15;;;;;;;14.09;100.00;98088.22;4977336;28;20125;-73